.
WxDataArchive / Data Records for 2007-06-28
2007-06-27 June 2007 2007-06-29

Data Records for Thursday, 28 June 2007

Time	Temp	Chill	HIndex	Humid	Dewpt	 Wind 	HiWind	WindDir	Rain 	Barom 
-----	----	-----	------	-----	-----	------	------	-------	-----	----- 
00:00	73.2	73.2	73.2	73	64.0	0	2	248	0.00	29.961 
00:05	73.3	73.3	73.3	73	64.1	1	2	248	0.00	29.958 
00:10	73.3	73.3	73.3	74	64.5	1	4	270	0.00	29.958 
00:15	73.3	73.3	73.3	74	64.5	1	3	248	0.00	29.956 
00:20	73.3	73.3	73.3	75	64.9	1	3	248	0.00	29.956 
00:25	73.2	73.2	73.2	76	65.2	1	3	225	0.00	29.956 
00:30	73.2	73.2	73.2	76	65.2	1	2	225	0.00	29.955 
00:35	73.0	73.0	73.0	77	65.3	1	2	225	0.00	29.952 
00:40	72.8	72.8	72.8	77	65.2	0	1	225	0.00	29.947 
00:45	72.7	72.7	72.7	78	65.4	0	1	225	0.00	29.946 
00:50	72.7	72.7	72.7	78	65.4	0	1	225	0.00	29.945 
00:55	72.5	72.5	72.5	79	65.6	0	1	225	0.00	29.947 
01:00	72.3	72.3	72.3	79	65.4	0	1	225	0.00	29.946 
01:05	72.3	72.3	72.3	80	65.8	0	1	225	0.00	29.945 
01:10	72.1	72.1	72.1	80	65.6	0	1	225	0.00	29.945 
01:15	72.1	72.1	72.1	81	65.9	0	2	225	0.00	29.944 
01:20	72.0	72.0	72.0	81	65.8	0	1	225	0.00	29.944 
01:25	72.0	72.0	72.0	81	65.8	0	0	---	0.00	29.941 
01:30	71.8	71.8	71.8	82	66.0	0	1	225	0.00	29.942 
01:35	71.8	71.8	71.8	82	66.0	0	1	225	0.00	29.943 
01:40	71.6	71.6	71.6	83	66.2	0	1	225	0.00	29.943 
01:45	71.6	71.6	71.6	83	66.2	0	1	225	0.00	29.940 
01:50	71.5	71.5	71.5	84	66.4	0	1	225	0.00	29.939 
01:55	71.3	71.3	71.3	84	66.2	0	1	225	0.00	29.939 
02:00	71.3	71.3	71.3	84	66.2	0	0	---	0.00	29.942 
02:05	71.1	71.1	71.1	85	66.4	0	0	---	0.00	29.938 
02:10	70.9	70.9	70.9	85	66.2	0	0	---	0.00	29.938 
02:15	70.8	70.8	70.8	85	66.1	0	0	---	0.00	29.936 
02:20	70.8	70.8	70.8	86	66.4	0	0	---	0.00	29.933 
02:25	70.6	70.6	70.6	87	66.5	0	0	---	0.00	29.933 
02:30	70.6	70.6	70.6	87	66.5	0	0	---	0.00	29.933 
02:35	70.6	70.6	70.6	87	66.5	0	0	---	0.00	29.932 
02:40	70.4	70.4	70.4	88	66.7	0	0	---	0.00	29.931 
02:45	70.4	70.4	70.4	88	66.7	0	0	---	0.00	29.931 
02:50	70.3	70.3	70.3	88	66.6	0	0	---	0.00	29.931 
02:55	70.3	70.3	70.3	89	66.9	0	1	225	0.00	29.931 
03:00	70.3	70.3	70.3	89	66.9	0	0	---	0.00	29.930 
03:05	70.3	70.3	70.3	89	66.9	0	1	225	0.00	29.933 
03:10	70.3	70.3	70.3	89	66.9	0	0	---	0.00	29.932 
03:15	70.1	70.1	70.1	90	67.0	0	0	---	0.00	29.932 
03:20	70.1	70.1	70.1	90	67.0	0	0	---	0.00	29.933 
03:25	70.1	70.1	70.1	90	67.0	0	0	---	0.00	29.933 
03:30	69.9	69.9	69.9	90	66.8	0	0	---	0.00	29.932 
03:35	69.8	69.8	69.8	90	66.7	0	0	---	0.00	29.934 
03:40	69.6	69.6	69.6	90	66.5	0	0	---	0.00	29.934 
03:45	69.4	69.4	69.4	91	66.7	0	0	---	0.00	29.933 
03:50	69.3	69.3	69.3	91	66.6	0	0	---	0.00	29.932 
03:55	69.3	69.3	69.3	92	66.9	0	0	---	0.00	29.934 
04:00	69.1	69.1	69.1	92	66.7	0	0	---	0.00	29.934 
04:05	69.1	69.1	69.1	92	66.7	0	0	---	0.00	29.937 
04:10	68.9	68.9	68.9	92	66.5	0	0	---	0.00	29.937 
04:15	68.8	68.8	68.8	93	66.7	0	1	225	0.00	29.938 
04:20	68.9	68.9	68.9	93	66.8	0	1	225	0.00	29.939 
04:25	68.9	68.9	68.9	93	66.8	0	0	---	0.00	29.940 
04:30	68.9	68.9	68.9	94	67.1	0	0	---	0.00	29.939 
04:35	69.1	69.1	69.1	94	67.3	0	1	225	0.00	29.941 
04:40	69.3	69.3	69.3	94	67.5	0	1	225	0.00	29.941 
04:45	69.1	69.1	69.1	94	67.3	0	0	---	0.00	29.941 
04:50	69.1	69.1	69.1	94	67.3	0	0	---	0.00	29.945 
04:55	69.1	69.1	69.1	94	67.3	0	1	225	0.00	29.946 
05:00	69.4	69.4	69.4	94	67.6	0	1	225	0.00	29.945 
05:05	69.4	69.4	69.4	94	67.6	0	0	---	0.00	29.947 
05:10	69.6	69.6	69.6	94	67.8	0	0	---	0.00	29.947 
05:15	69.6	69.6	69.6	94	67.8	0	0	---	0.00	29.950 
05:20	69.8	69.8	69.8	93	67.7	0	0	---	0.00	29.949 
05:25	69.8	69.8	69.8	93	67.7	0	0	---	0.00	29.945 
05:30	69.8	69.8	69.8	93	67.7	0	0	---	0.00	29.950 
05:35	69.8	69.8	69.8	93	67.7	0	0	---	0.00	29.953 
05:40	69.8	69.8	69.8	93	67.7	0	0	---	0.00	29.955 
05:45	69.9	69.9	69.9	93	67.8	0	0	---	0.00	29.956 
05:50	69.9	69.9	69.9	93	67.8	0	0	---	0.00	29.956 
05:55	70.1	70.1	70.1	93	68.0	0	0	---	0.00	29.957 
06:00	70.3	70.3	70.3	93	68.2	0	0	---	0.00	29.958 
06:05	70.4	70.4	70.4	93	68.3	0	0	---	0.00	29.954 
06:10	70.6	70.6	70.6	92	68.2	0	1	225	0.00	29.957 
06:15	70.8	70.8	70.8	92	68.4	0	0	---	0.00	29.959 
06:20	70.9	70.9	70.9	92	68.5	0	1	225	0.00	29.962 
06:25	71.1	71.1	71.1	91	68.3	0	1	225	0.00	29.965 
06:30	71.3	71.3	71.3	91	68.5	0	0	---	0.00	29.966 
06:35	71.3	71.3	71.3	90	68.2	0	1	225	0.00	29.966 
06:40	71.6	71.6	71.6	90	68.5	0	2	225	0.00	29.965 
06:45	71.8	71.8	71.8	89	68.4	0	1	225	0.00	29.965 
06:50	72.0	72.0	72.0	89	68.6	0	1	225	0.00	29.963 
06:55	72.0	72.0	72.0	88	68.2	0	1	225	0.00	29.963 
07:00	72.1	72.1	72.1	88	68.3	0	1	225	0.00	29.966 
07:05	72.3	72.3	72.3	87	68.2	0	1	225	0.00	29.966 
07:10	72.3	72.3	72.3	87	68.2	0	1	225	0.00	29.966 
07:15	72.3	72.3	72.3	86	67.9	0	2	225	0.00	29.966 
07:20	72.3	72.3	72.3	86	67.9	0	2	225	0.00	29.966 
07:25	72.3	72.3	72.3	86	67.9	0	2	225	0.00	29.966 
07:30	72.3	72.3	72.3	86	67.9	0	1	225	0.00	29.966 
07:35	72.5	72.5	72.5	86	68.1	0	1	225	0.00	29.967 
07:40	72.5	72.5	72.5	86	68.1	0	1	225	0.00	29.966 
07:45	72.5	72.5	72.5	85	67.7	0	1	225	0.00	29.967 
07:50	72.7	72.7	72.7	86	68.3	0	2	225	0.00	29.968 
07:55	72.8	72.8	72.8	85	68.0	0	2	225	0.00	29.972 
08:00	72.8	72.8	72.8	85	68.0	0	1	225	0.00	29.976 
08:05	73.0	73.0	73.0	85	68.2	0	2	225	0.00	29.980 
08:10	73.0	73.0	73.0	84	67.9	0	1	225	0.00	29.980 
08:15	72.8	72.8	72.8	84	67.7	0	1	225	0.00	29.980 
08:20	72.8	72.8	72.8	84	67.7	0	1	225	0.00	29.975 
08:25	73.0	73.0	73.0	84	67.9	0	1	225	0.00	29.977 
08:30	73.0	73.0	73.0	84	67.9	0	1	225	0.00	29.976 
08:35	73.3	73.3	73.3	84	68.2	0	1	225	0.00	29.974 
08:40	73.3	73.3	73.3	83	67.8	0	1	225	0.00	29.974 
08:45	73.5	73.5	73.5	84	68.4	0	1	225	0.00	29.973 
08:50	73.7	73.7	73.7	83	68.2	0	1	225	0.00	29.971 
08:55	73.9	73.9	73.9	83	68.4	0	1	225	0.00	29.970 
09:00	74.0	74.0	74.0	82	68.1	0	0	---	0.00	29.972 
09:05	74.6	74.6	74.6	81	68.4	0	1	225	0.00	29.975 
09:10	74.6	74.6	74.6	80	68.0	0	1	225	0.00	29.980 
09:15	74.6	74.6	74.6	79	67.6	0	0	---	0.00	29.982 
09:20	74.6	74.6	74.6	80	68.0	0	0	---	0.00	29.982 
09:25	74.6	74.6	74.6	81	68.4	0	0	---	0.00	29.982 
09:30	74.6	74.6	74.6	80	68.0	0	1	225	0.00	29.982 
09:35	74.6	74.6	74.6	80	68.0	0	1	225	0.00	29.982 
09:40	74.6	74.6	74.6	80	68.0	0	1	225	0.00	29.983 
09:45	74.4	74.4	74.4	80	67.8	0	0	---	0.00	29.983 
09:50	74.4	74.4	74.4	81	68.2	0	2	225	0.00	29.984 
09:55	74.4	74.4	74.4	81	68.2	0	1	225	0.00	29.984 
10:00	74.2	74.2	74.2	81	68.0	0	1	225	0.00	29.984 
10:05	74.4	74.4	74.4	82	68.5	0	1	225	0.00	29.984 
10:10	74.4	74.4	74.4	82	68.5	0	2	225	0.01	29.985 
10:15	73.9	73.9	73.9	85	69.1	0	1	225	0.15	29.985 
10:20	72.8	72.8	72.8	88	69.0	0	1	225	0.02	29.989 
10:25	72.5	72.5	72.5	90	69.4	0	0	---	0.00	29.989 
10:30	72.3	72.3	72.3	90	69.2	0	0	---	0.02	29.992 
10:35	72.1	72.1	72.1	91	69.3	0	0	---	0.00	29.993 
10:40	72.0	72.0	72.0	92	69.5	0	2	225	0.00	29.993 
10:45	72.0	72.0	72.0	93	69.9	0	1	225	0.00	29.992 
10:50	72.0	72.0	72.0	93	69.9	0	0	---	0.00	29.990 
10:55	72.0	72.0	72.0	94	70.2	0	0	---	0.00	29.991 
11:00	71.8	71.8	71.8	94	70.0	0	1	225	0.00	29.991 
11:05	72.0	72.0	72.0	94	70.2	0	1	225	0.00	29.993 
11:10	72.0	72.0	72.0	94	70.2	0	1	225	0.00	29.997 
11:15	72.0	72.0	72.0	94	70.2	0	0	---	0.00	29.998 
11:20	72.0	72.0	72.0	95	70.5	0	0	---	0.00	29.995 
11:25	72.1	72.1	72.1	95	70.6	0	1	225	0.00	29.992 
11:30	72.3	72.3	72.3	95	70.8	0	1	225	0.00	29.991 
11:35	72.5	72.5	72.5	95	71.0	0	0	---	0.00	29.989 
11:40	72.7	72.7	72.7	95	71.2	0	0	---	0.00	29.989 
11:45	72.7	72.7	72.7	94	70.9	0	0	---	0.00	29.987 
11:50	72.8	72.8	72.8	95	71.3	0	0	---	0.00	29.987 
11:55	73.0	73.0	73.0	95	71.5	0	0	---	0.00	29.987 
12:00	73.2	73.2	73.2	94	71.4	0	1	225	0.00	29.986 
12:05	73.0	73.0	73.0	93	70.8	0	1	225	0.00	29.987 
12:10	73.0	73.0	73.0	93	70.8	0	1	225	0.00	29.986 
12:15	73.2	73.2	73.2	93	71.0	0	1	225	0.00	29.985 
12:20	73.2	73.2	73.2	93	71.0	0	0	---	0.00	29.982 
12:25	73.3	73.3	73.3	93	71.1	0	0	---	0.00	29.978 
12:30	73.3	73.3	73.3	93	71.1	0	0	---	0.00	29.976 
12:35	73.5	73.5	73.5	92	71.0	0	0	---	0.00	29.972 
12:40	73.7	73.7	73.7	92	71.2	0	0	---	0.00	29.972 
12:45	73.7	73.7	73.7	90	70.6	0	1	225	0.00	29.973 
12:50	73.9	73.9	73.9	90	70.8	0	0	---	0.00	29.973 
12:55	73.9	73.9	73.9	90	70.8	0	0	---	0.00	29.972 
13:00	74.0	74.0	74.0	90	70.9	0	0	---	0.00	29.971 
13:05	74.0	74.0	74.0	88	70.2	0	0	---	0.00	29.971 
13:10	74.2	74.2	74.2	88	70.4	0	1	225	0.00	29.970 
13:15	74.2	74.2	74.2	88	70.4	0	1	225	0.00	29.969 
13:20	74.2	74.2	74.2	88	70.4	0	1	225	0.00	29.967 
13:25	74.2	74.2	74.2	89	70.7	0	1	225	0.03	29.963 
13:30	74.2	74.2	74.2	90	71.1	0	1	225	0.02	29.959 
13:35	74.0	74.0	74.0	90	70.9	0	0	---	0.00	29.957 
13:40	74.0	74.0	74.0	91	71.2	0	0	---	0.00	29.957 
13:45	73.7	73.7	73.7	91	70.9	0	1	225	0.03	29.959 
13:50	73.3	73.3	73.3	92	70.8	0	0	---	0.06	29.956 
13:55	73.2	73.2	73.2	93	71.0	0	0	---	0.01	29.958 
14:00	73.0	73.0	73.0	93	70.8	0	0	---	0.00	29.956 
14:05	73.2	73.2	73.2	94	71.4	0	1	225	0.00	29.958 
14:10	73.5	73.5	73.5	94	71.7	0	0	---	0.00	29.957 
14:15	73.3	73.3	73.3	94	71.5	0	0	---	0.00	29.957 
14:20	73.3	73.3	73.3	95	71.8	0	1	225	0.00	29.956 
14:25	73.2	73.2	73.2	94	71.4	0	1	225	0.00	29.957 
14:30	73.0	73.0	73.0	94	71.2	0	1	225	0.00	29.957 
14:35	73.2	73.2	73.2	94	71.4	0	1	225	0.00	29.956 
14:40	73.3	73.3	73.3	94	71.5	0	2	315	0.00	29.953 
14:45	73.9	73.9	73.9	95	72.4	0	1	315	0.00	29.952 
14:50	74.0	74.0	74.0	95	72.5	0	1	315	0.00	29.948 
14:55	73.9	73.9	73.9	94	72.1	1	3	270	0.00	29.945 
15:00	74.4	74.4	74.4	94	72.6	0	2	270	0.00	29.945 
15:05	74.9	74.9	74.9	93	72.7	0	2	270	0.00	29.945 
15:10	75.3	75.3	74.5	91	72.5	1	5	270	0.00	29.943 
15:15	75.4	75.4	75.5	85	70.6	1	3	68	0.00	29.945 
15:20	75.6	75.6	75.9	85	70.8	0	2	68	0.00	29.947 
15:25	75.6	75.6	76.1	83	70.1	1	3	68	0.00	29.949 
15:30	75.6	75.6	76.1	83	70.1	0	2	68	0.00	29.949 
15:35	75.4	75.4	75.8	83	69.9	0	2	68	0.00	29.950 
15:40	74.9	74.9	74.9	84	69.7	0	2	68	0.00	29.950 
15:45	74.6	74.6	74.6	84	69.4	0	2	45	0.00	29.949 
15:50	74.7	74.7	74.7	82	68.8	1	4	90	0.00	29.949 
15:55	74.7	74.7	74.7	83	69.2	0	2	90	0.00	29.949 
16:00	74.7	74.7	74.7	81	68.5	0	4	90	0.00	29.951 
16:05	74.7	74.7	74.7	79	67.7	1	3	112	0.00	29.949 
16:10	74.7	74.7	74.7	80	68.1	0	4	112	0.00	29.949 
16:15	74.7	74.7	74.7	79	67.7	1	3	68	0.00	29.943 
16:20	74.9	74.9	74.9	80	68.3	1	3	90	0.00	29.945 
16:25	74.7	74.7	74.7	81	68.5	0	1	90	0.00	29.944 
16:30	74.7	74.7	74.7	82	68.8	0	2	90	0.00	29.946 
16:35	74.4	74.4	74.4	83	68.9	0	2	90	0.00	29.946 
16:40	74.0	74.0	74.0	83	68.5	0	2	90	0.00	29.948 
16:45	74.0	74.0	74.0	84	68.8	0	3	90	0.00	29.947 
16:50	73.9	73.9	73.9	81	67.7	1	3	90	0.00	29.950 
16:55	73.9	73.9	73.9	82	68.0	0	2	90	0.00	29.953 
17:00	73.9	73.9	73.9	83	68.4	0	3	90	0.00	29.947 
17:05	73.9	73.9	73.9	83	68.4	0	2	90	0.00	29.947 
17:10	73.7	73.7	73.7	82	67.9	0	1	90	0.00	29.954 
17:15	73.9	73.9	73.9	81	67.7	1	3	90	0.00	29.954 
17:20	73.9	73.9	73.9	81	67.7	1	4	68	0.00	29.955 
17:25	74.0	74.0	74.0	79	67.1	1	3	112	0.00	29.955 
17:30	74.2	74.2	74.2	80	67.6	0	2	112	0.00	29.956 
17:35	74.2	74.2	74.2	80	67.6	0	2	112	0.00	29.957 
17:40	74.4	74.4	74.4	81	68.2	0	1	112	0.00	29.957 
17:45	74.2	74.2	74.2	80	67.6	1	3	112	0.00	29.957 
17:50	74.0	74.0	74.0	80	67.4	0	3	112	0.00	29.960 
17:55	73.9	73.9	73.9	81	67.7	1	4	112	0.00	29.964 
18:00	73.7	73.7	73.7	81	67.5	0	2	112	0.00	29.967 
18:05	73.5	73.5	73.5	81	67.3	0	1	112	0.00	29.967 
18:10	73.3	73.3	73.3	80	66.7	1	4	112	0.00	29.969 
18:15	73.2	73.2	73.2	81	67.0	1	3	112	0.00	29.971 
18:20	73.0	73.0	73.0	81	66.8	0	3	90	0.00	29.972 
18:25	72.8	72.8	72.8	82	67.0	1	2	90	0.00	29.970 
18:30	72.7	72.7	72.7	83	67.2	1	2	90	0.00	29.963 
18:35	72.5	72.5	72.5	84	67.4	0	2	90	0.00	29.965 
18:40	72.3	72.3	72.3	84	67.2	0	1	90	0.00	29.963 
18:45	72.1	72.1	72.1	85	67.3	0	1	90	0.00	29.964 
18:50	72.1	72.1	72.1	85	67.3	0	1	90	0.00	29.965 
18:55	72.1	72.1	72.1	85	67.3	0	1	90	0.00	29.968 
19:00	72.1	72.1	72.1	85	67.3	1	3	90	0.00	29.967 
19:05	72.1	72.1	72.1	84	67.0	0	2	90	0.00	29.972 
19:10	72.1	72.1	72.1	84	67.0	0	1	90	0.00	29.973 
19:15	72.0	72.0	72.0	84	66.9	0	1	90	0.00	29.973 
19:20	72.0	72.0	72.0	83	66.5	0	2	68	0.00	29.973 
19:25	72.0	72.0	72.0	81	65.8	1	3	68	0.00	29.972 
19:30	71.8	71.8	71.8	78	64.6	1	3	68	0.00	29.969 
19:35	71.8	71.8	71.8	79	64.9	1	3	68	0.00	29.971 
19:40	71.8	71.8	71.8	77	64.2	1	4	112	0.00	29.967 
19:45	71.8	71.8	71.8	78	64.6	1	2	90	0.00	29.970 
19:50	71.6	71.6	71.6	77	64.0	1	2	90	0.00	29.968 
19:55	71.6	71.6	71.6	78	64.4	0	2	90	0.00	29.971 
20:00	71.6	71.6	71.6	79	64.7	0	2	68	0.00	29.973 
20:05	71.5	71.5	71.5	80	65.0	0	1	68	0.00	29.978 
20:10	71.3	71.3	71.3	80	64.8	0	1	68	0.00	29.979 
20:15	71.1	71.1	71.1	80	64.6	0	1	68	0.00	29.973 
20:20	71.1	71.1	71.1	81	65.0	0	1	68	0.00	29.974 
20:25	71.1	71.1	71.1	80	64.6	0	2	68	0.00	29.973 
20:30	71.1	71.1	71.1	80	64.6	0	1	68	0.00	29.978 
20:35	70.9	70.9	70.9	81	64.8	0	0	---	0.00	29.975 
20:40	70.9	70.9	70.9	81	64.8	0	1	68	0.00	29.980 
20:45	70.8	70.8	70.8	81	64.7	0	1	68	0.00	29.981 
20:50	70.6	70.6	70.6	81	64.5	0	0	---	0.00	29.985 
20:55	70.6	70.6	70.6	81	64.5	0	0	---	0.00	29.986 
21:00	70.4	70.4	70.4	81	64.3	0	1	68	0.00	29.988 
21:05	70.4	70.4	70.4	82	64.6	0	1	68	0.00	29.989 
21:10	70.4	70.4	70.4	82	64.6	0	0	---	0.00	29.997 
21:15	70.4	70.4	70.4	82	64.6	0	0	---	0.00	30.002 
21:20	70.3	70.3	70.3	82	64.5	0	0	---	0.00	30.003 
21:25	70.1	70.1	70.1	81	64.0	0	2	68	0.00	30.003 
21:30	70.1	70.1	70.1	80	63.6	0	2	68	0.00	30.003 
21:35	70.3	70.3	70.3	77	62.7	1	5	90	0.00	30.004 
21:40	70.3	70.3	70.3	77	62.7	0	2	135	0.00	30.004 
21:45	70.3	70.3	70.3	78	63.1	0	2	135	0.00	30.005 
21:50	70.3	70.3	70.3	78	63.1	0	1	135	0.00	30.008 
21:55	70.1	70.1	70.1	78	62.9	0	1	135	0.00	30.008 
22:00	70.1	70.1	70.1	78	62.9	0	1	135	0.00	30.010 
22:05	69.9	69.9	69.9	78	62.7	0	1	135	0.00	30.016 
22:10	69.8	69.8	69.8	78	62.6	0	0	---	0.00	30.017 
22:15	69.8	69.8	69.8	80	63.3	0	0	---	0.00	30.020 
22:20	69.6	69.6	69.6	79	62.8	0	0	---	0.00	30.020 
22:25	69.6	69.6	69.6	79	62.8	0	0	---	0.00	30.020 
22:30	69.6	69.6	69.6	77	62.1	0	1	135	0.00	30.022 
22:35	69.6	69.6	69.6	78	62.4	0	0	---	0.00	30.021 
22:40	69.6	69.6	69.6	78	62.4	0	1	135	0.00	30.019 
22:45	69.4	69.4	69.4	78	62.2	0	1	135	0.00	30.021 
22:50	69.4	69.4	69.4	77	61.9	0	1	135	0.00	30.014 
22:55	69.6	69.6	69.6	76	61.7	0	1	135	0.00	30.017 
23:00	69.4	69.4	69.4	75	61.1	0	2	135	0.00	30.019 
23:05	69.6	69.6	69.6	74	60.9	1	3	135	0.00	30.013 
23:10	69.6	69.6	69.6	74	60.9	0	2	135	0.00	30.011 
23:15	69.6	69.6	69.6	74	60.9	0	2	45	0.00	30.009 
23:20	69.6	69.6	69.6	75	61.3	0	2	45	0.00	30.009 
23:25	69.6	69.6	69.6	75	61.3	0	2	45	0.00	30.009 
23:30	69.4	69.4	69.4	74	60.7	0	1	45	0.00	30.009 
23:35	69.4	69.4	69.4	76	61.5	0	1	45	0.00	30.012 
23:40	69.3	69.3	69.3	76	61.4	0	1	45	0.00	30.013 
23:45	69.1	69.1	69.1	76	61.2	1	3	68	0.00	30.014 
23:50	69.1	69.1	69.1	76	61.2	0	3	68	0.00	30.014 
23:55	69.1	69.1	69.1	76	61.2	1	3	68	0.00	30.018 

CoCoRaHS
IN-AL-39
A2 Web Hosting
Creative Commons License
GoDaddy
Look for:

loaded 2017-12-11 06:43:29 • last modified 2010-11-18 10:43:29
Privacy PolicyDisclaimer
• wx.awcolley.com is powered by PmWiki v.2002016 •
• all content (unless otherwise noted) © 2017 A W Colley